createdAt,value
2023-05-24T00:00:23.751Z,10.20
2023-05-24T00:02:50.880Z,10.20
2023-05-24T00:05:19.047Z,10.10
2023-05-24T00:07:46.281Z,10.10
2023-05-24T00:10:13.586Z,10.00
2023-05-24T00:12:40.665Z,10.00
2023-05-24T00:15:08.192Z,10.00
2023-05-24T00:17:43.246Z,10.00
2023-05-24T00:20:12.297Z,10.10
2023-05-24T00:22:39.642Z,10.00
2023-05-24T00:25:07.282Z,10.00
2023-05-24T00:27:34.689Z,9.90
2023-05-24T00:30:01.767Z,9.80
2023-05-24T00:32:28.872Z,9.90
2023-05-24T00:34:56.061Z,9.90
2023-05-24T00:37:23.592Z,9.90
2023-05-24T00:39:50.787Z,9.90
2023-05-24T00:42:17.875Z,9.90
2023-05-24T00:44:44.929Z,9.90
2023-05-24T00:47:12.087Z,9.90
2023-05-24T00:49:39.170Z,9.90
2023-05-24T00:52:06.698Z,9.90
2023-05-24T00:54:33.722Z,10.00
2023-05-24T00:57:00.828Z,9.90
2023-05-24T00:59:27.897Z,9.90
2023-05-24T01:01:55.736Z,9.90
2023-05-24T01:04:23.261Z,9.90
2023-05-24T01:07:11.738Z,9.90
2023-05-24T01:09:56.842Z,9.80
2023-05-24T01:12:43.605Z,9.90
2023-05-24T01:15:22.896Z,9.80
2023-05-24T01:17:55.953Z,9.80
2023-05-24T01:20:23.093Z,9.80
2023-05-24T01:23:06.631Z,9.80
2023-05-24T01:25:37.420Z,9.70
2023-05-24T01:28:05.309Z,9.70
2023-05-24T01:30:32.412Z,9.70
2023-05-24T01:32:59.637Z,9.70
2023-05-24T01:35:26.792Z,9.70
2023-05-24T01:37:53.918Z,9.70
2023-05-24T01:40:20.967Z,9.60
2023-05-24T01:42:52.877Z,9.60
2023-05-24T01:45:48.926Z,9.60
2023-05-24T01:48:28.194Z,9.60
2023-05-24T01:50:58.697Z,9.60
2023-05-24T01:53:26.916Z,9.60
2023-05-24T01:55:57.219Z,9.60
2023-05-24T01:58:24.348Z,9.60
2023-05-24T02:00:51.472Z,9.60
2023-05-24T02:03:18.607Z,9.40
2023-05-24T02:05:46.351Z,9.50
2023-05-24T02:08:13.643Z,9.50
2023-05-24T02:10:41.372Z,9.50
2023-05-24T02:13:08.931Z,9.50
2023-05-24T02:15:36.003Z,9.40
2023-05-24T02:18:03.113Z,9.40
2023-05-24T02:20:31.659Z,9.30
2023-05-24T02:22:58.874Z,9.40
2023-05-24T02:25:26.148Z,9.40
2023-05-24T02:27:53.292Z,9.40
2023-05-24T02:30:20.525Z,9.40
2023-05-24T02:32:48.002Z,9.40
2023-05-24T02:35:15.078Z,9.40
2023-05-24T02:37:42.289Z,9.30
2023-05-24T02:40:09.698Z,9.30
2023-05-24T02:42:36.741Z,9.30
2023-05-24T02:45:03.955Z,9.20
2023-05-24T02:47:31.096Z,9.30
2023-05-24T02:49:58.153Z,9.30
2023-05-24T02:52:25.278Z,9.30
2023-05-24T02:54:52.525Z,9.30
2023-05-24T02:57:19.651Z,9.30
2023-05-24T02:59:46.694Z,9.40
2023-05-24T03:02:13.934Z,9.40
2023-05-24T03:04:41.029Z,9.40
2023-05-24T03:07:08.159Z,9.40
2023-05-24T03:09:36.179Z,9.40
2023-05-24T03:12:03.205Z,9.40
2023-05-24T03:14:30.305Z,9.50
2023-05-24T03:16:57.334Z,9.40
2023-05-24T03:19:24.418Z,9.50
2023-05-24T03:21:51.546Z,9.40
2023-05-24T03:24:18.596Z,9.40
2023-05-24T03:26:45.738Z,9.40
2023-05-24T03:29:15.795Z,9.40
2023-05-24T03:31:43.572Z,9.40
2023-05-24T03:34:10.766Z,9.40
2023-05-24T03:36:37.933Z,9.40
2023-05-24T03:39:05.032Z,9.40
2023-05-24T03:41:32.081Z,9.40
2023-05-24T03:43:59.525Z,9.40
2023-05-24T05:02:27.328Z,10.30
2023-05-24T05:04:54.494Z,10.30
2023-05-24T05:07:21.737Z,10.40
2023-05-24T05:09:48.898Z,10.40
2023-05-24T05:12:16.377Z,10.50
2023-05-24T05:14:43.487Z,10.60
2023-05-24T05:17:10.754Z,10.70
2023-05-24T05:19:37.867Z,10.70
2023-05-24T05:22:04.982Z,10.80
2023-05-24T05:24:32.033Z,10.80
2023-05-24T05:26:59.138Z,10.80
2023-05-24T05:29:26.181Z,10.80
2023-05-24T05:31:53.310Z,10.90
2023-05-24T05:34:21.408Z,10.90
2023-05-24T05:36:48.506Z,11.00
2023-05-24T05:39:15.850Z,11.00
2023-05-24T05:41:45.912Z,11.00
2023-05-24T05:44:13.411Z,11.10
2023-05-24T05:46:41.957Z,11.10
2023-05-24T05:49:09.817Z,11.20
2023-05-24T05:51:38.921Z,11.20
2023-05-24T05:54:06.347Z,11.30
2023-05-24T05:56:33.411Z,11.30
2023-05-24T05:59:00.507Z,11.40
2023-05-24T06:01:27.547Z,11.50
2023-05-24T06:03:54.667Z,11.50
2023-05-24T06:06:21.764Z,11.60
2023-05-24T06:08:48.825Z,11.70
2023-05-24T06:11:16.372Z,11.80
2023-05-24T06:13:43.513Z,12.10
2023-05-24T06:16:10.804Z,12.40
2023-05-24T06:18:38.043Z,12.70
2023-05-24T06:21:05.074Z,12.90
2023-05-24T06:23:32.652Z,13.30
2023-05-24T06:26:01.707Z,13.20
2023-05-24T06:28:28.851Z,13.30
2023-05-24T06:30:56.120Z,13.40
2023-05-24T06:33:23.202Z,13.40
2023-05-24T06:35:50.391Z,13.50
2023-05-24T06:38:18.021Z,13.70
2023-05-24T06:40:45.137Z,13.60
2023-05-24T06:43:12.482Z,14.00
2023-05-24T06:45:39.524Z,14.20
2023-05-24T06:48:06.770Z,14.10
2023-05-24T06:50:33.962Z,13.90
2023-05-24T06:53:03.166Z,13.60
2023-05-24T06:55:30.514Z,13.40
2023-05-24T06:57:57.575Z,13.30
2023-05-24T07:00:24.791Z,13.30
2023-05-24T07:02:52.026Z,13.50
2023-05-24T07:05:19.279Z,14.00
2023-05-24T07:07:46.425Z,14.30
2023-05-24T07:10:14.051Z,14.70
2023-05-24T07:12:41.862Z,15.20
2023-05-24T07:15:10.063Z,15.50
2023-05-24T07:17:37.648Z,15.50
2023-05-24T07:20:12.282Z,14.90
2023-05-24T07:22:39.927Z,14.40
2023-05-24T07:25:07.677Z,14.00
2023-05-24T07:27:35.020Z,14.10
2023-05-24T07:30:02.814Z,14.10
2023-05-24T07:32:30.132Z,14.00
2023-05-24T07:34:57.311Z,14.00
2023-05-24T07:37:24.775Z,14.00
2023-05-24T07:39:52.380Z,14.30
2023-05-24T07:42:19.616Z,14.60
2023-05-24T07:44:47.044Z,14.90
2023-05-24T07:47:14.127Z,15.20
2023-05-24T07:49:41.278Z,15.10
2023-05-24T07:52:08.760Z,15.20
2023-05-24T07:54:35.811Z,15.10
2023-05-24T07:57:03.022Z,15.30
2023-05-24T07:59:30.085Z,15.20
2023-05-24T08:02:01.806Z,15.50
2023-05-24T08:04:29.359Z,15.40
2023-05-24T08:06:58.211Z,15.40
2023-05-24T08:09:25.368Z,15.20
2023-05-24T08:11:52.630Z,15.10
2023-05-24T08:14:19.819Z,14.90
2023-05-24T08:16:47.143Z,14.80
2023-05-24T08:19:14.556Z,15.00
2023-05-24T08:21:42.611Z,14.90
2023-05-24T08:24:09.815Z,14.80
2023-05-24T08:26:36.936Z,14.60
2023-05-24T08:29:04.089Z,14.50
2023-05-24T08:31:33.048Z,14.30
2023-05-24T08:34:02.121Z,14.30
2023-05-24T08:36:29.179Z,14.40
2023-05-24T08:38:56.406Z,14.30
2023-05-24T08:41:24.295Z,14.20
2023-05-24T08:43:51.678Z,14.10
2023-05-24T08:46:18.813Z,14.10
2023-05-24T08:48:49.776Z,14.00
2023-05-24T08:51:17.300Z,14.00
2023-05-24T08:53:48.962Z,13.90
2023-05-24T08:56:21.817Z,14.00
2023-05-24T08:58:51.077Z,14.00
2023-05-24T09:01:18.220Z,14.00
2023-05-24T09:03:47.034Z,14.00
2023-05-24T09:06:16.774Z,14.00
2023-05-24T09:08:45.342Z,14.10
2023-05-24T09:11:12.622Z,14.30
2023-05-24T09:13:39.783Z,14.60
2023-05-24T09:16:07.053Z,14.70
2023-05-24T09:18:34.143Z,14.70
2023-05-24T09:21:01.238Z,14.60
2023-05-24T09:23:28.405Z,14.60
2023-05-24T09:25:55.532Z,14.50
2023-05-24T09:28:22.862Z,14.30
2023-05-24T09:31:03.916Z,14.30
2023-05-24T09:33:33.416Z,14.30
2023-05-24T09:36:01.901Z,14.40
2023-05-24T09:38:29.805Z,14.40
2023-05-24T09:41:03.566Z,14.30
2023-05-24T09:43:34.995Z,14.20
2023-05-24T09:46:05.824Z,14.20
2023-05-24T09:48:32.898Z,14.20
2023-05-24T09:51:04.294Z,14.20
2023-05-24T09:53:34.182Z,14.10
2023-05-24T09:56:04.517Z,14.10
2023-05-24T09:58:33.697Z,14.00
2023-05-24T10:01:08.259Z,14.00
2023-05-24T10:03:35.878Z,14.10
2023-05-24T10:06:06.828Z,14.10
2023-05-24T10:08:34.676Z,14.10
2023-05-24T10:11:05.429Z,14.20
2023-05-24T10:13:33.836Z,14.10
2023-05-24T10:16:00.979Z,14.10
2023-05-24T10:18:28.082Z,14.10
2023-05-24T10:20:56.146Z,14.20
2023-05-24T10:23:23.995Z,14.20
2023-05-24T10:26:04.098Z,14.20
2023-05-24T10:28:31.182Z,14.20
2023-05-24T10:31:32.330Z,14.10
2023-05-24T10:34:07.069Z,14.10
2023-05-24T10:36:35.251Z,14.20
2023-05-24T10:39:03.680Z,14.20
2023-05-24T10:41:30.839Z,14.30
2023-05-24T10:44:09.313Z,14.20
2023-05-24T10:46:38.545Z,14.20
2023-05-24T10:49:07.710Z,14.30
2023-05-24T10:51:41.033Z,14.20
2023-05-24T10:54:14.921Z,14.20
2023-05-24T10:56:44.424Z,14.20
2023-05-24T10:59:23.142Z,14.20
2023-05-24T11:01:58.458Z,14.20
2023-05-24T11:04:26.490Z,14.30
2023-05-24T11:07:03.401Z,14.40
2023-05-24T11:09:30.525Z,14.40
2023-05-24T11:12:07.898Z,14.40
2023-05-24T11:14:42.619Z,14.30
2023-05-24T11:17:10.934Z,14.40
2023-05-24T11:19:46.160Z,14.50
2023-05-24T11:22:15.187Z,14.50
2023-05-24T11:24:42.927Z,14.70
2023-05-24T11:27:12.217Z,14.70
2023-05-24T11:29:46.792Z,14.80
2023-05-24T11:32:18.615Z,14.90
2023-05-24T11:34:49.714Z,14.90
2023-05-24T11:37:18.831Z,14.90
2023-05-24T11:39:52.139Z,14.80
2023-05-24T11:42:19.774Z,14.80
2023-05-24T11:44:48.549Z,14.80
2023-05-24T11:47:15.645Z,14.90
2023-05-24T11:49:42.733Z,15.00
2023-05-24T11:52:09.778Z,15.00
2023-05-24T11:54:38.824Z,15.00
2023-05-24T11:57:06.075Z,15.00
2023-05-24T11:59:33.340Z,15.00
2023-05-24T12:02:05.765Z,15.10
2023-05-24T12:04:33.405Z,15.00
2023-05-24T12:07:00.572Z,14.80
2023-05-24T12:09:27.950Z,14.70
2023-05-24T12:11:55.263Z,14.90
2023-05-24T12:14:31.482Z,14.80
2023-05-24T12:16:58.778Z,14.80
2023-05-24T12:19:33.914Z,14.90
2023-05-24T12:22:04.801Z,14.80
2023-05-24T12:24:31.974Z,14.90
2023-05-24T12:27:09.064Z,15.00
2023-05-24T12:29:41.886Z,15.00
2023-05-24T12:32:14.018Z,15.10
2023-05-24T12:34:43.020Z,15.10
2023-05-24T12:37:12.900Z,15.20
2023-05-24T12:39:43.531Z,15.10
2023-05-24T12:42:13.719Z,15.10
2023-05-24T12:44:41.176Z,15.10
2023-05-24T12:47:09.238Z,15.10
2023-05-24T12:49:36.660Z,15.10
2023-05-24T12:52:04.058Z,15.10
2023-05-24T12:54:31.137Z,15.10
2023-05-24T12:57:00.525Z,15.20
2023-05-24T12:59:28.835Z,15.30
2023-05-24T13:01:56.354Z,15.20
2023-05-24T13:04:26.493Z,15.20
2023-05-24T13:06:53.731Z,15.30
2023-05-24T13:09:25.929Z,15.40
2023-05-24T13:11:54.435Z,15.40
2023-05-24T13:14:21.591Z,15.50
2023-05-24T13:16:49.096Z,15.60
2023-05-24T13:19:17.456Z,15.50
2023-05-24T13:21:45.220Z,15.50
2023-05-24T13:24:14.888Z,15.50
2023-05-24T13:26:42.339Z,15.60
2023-05-24T13:31:41.243Z,16.00
2023-05-24T13:34:10.985Z,16.00
2023-05-24T13:36:38.412Z,16.00
2023-05-24T13:39:15.475Z,16.10
2023-05-24T13:41:44.659Z,15.90
2023-05-24T13:44:15.871Z,15.80
2023-05-24T13:46:43.497Z,15.70
2023-05-24T13:49:12.341Z,15.50
2023-05-24T13:51:39.878Z,15.50
2023-05-24T13:54:08.109Z,15.80
2023-05-24T13:56:36.759Z,16.10
2023-05-24T13:59:04.867Z,16.20
2023-05-24T14:01:33.553Z,16.20
2023-05-24T14:04:02.420Z,16.00
2023-05-24T14:06:29.724Z,15.90
2023-05-24T14:08:57.027Z,15.90
2023-05-24T14:11:25.046Z,15.80
2023-05-24T14:16:22.571Z,15.80
2023-05-24T14:18:51.830Z,15.80
2023-05-24T14:21:21.805Z,15.90
2023-05-24T14:23:49.647Z,15.90
2023-05-24T14:26:18.815Z,16.00
2023-05-24T14:28:46.352Z,15.90
2023-05-24T14:31:13.632Z,15.80
2023-05-24T14:33:41.164Z,15.80
2023-05-24T14:36:08.962Z,15.80
2023-05-24T14:38:36.351Z,15.90
2023-05-24T14:41:03.884Z,15.90
2023-05-24T14:43:31.040Z,15.90
2023-05-24T14:45:58.138Z,15.80
2023-05-24T14:48:25.256Z,15.70
2023-05-24T14:50:52.684Z,15.70
2023-05-24T14:53:19.747Z,15.70
2023-05-24T14:55:47.085Z,15.50
2023-05-24T14:58:14.452Z,15.30
2023-05-24T15:00:42.527Z,15.30
2023-05-24T15:03:13.156Z,15.40
2023-05-24T15:05:41.973Z,15.40
2023-05-24T15:08:11.308Z,15.40
2023-05-24T15:10:44.933Z,15.40
2023-05-24T15:15:40.690Z,15.50
2023-05-24T15:18:08.257Z,15.50
2023-05-24T15:20:36.027Z,15.50
2023-05-24T15:23:03.538Z,15.50
2023-05-24T15:25:30.625Z,15.50
2023-05-24T15:27:58.099Z,15.60
2023-05-24T15:30:25.223Z,15.60
2023-05-24T15:32:52.312Z,15.60
2023-05-24T15:35:19.429Z,15.70
2023-05-24T15:37:46.508Z,15.70
2023-05-24T15:40:13.789Z,15.60
2023-05-24T15:42:41.138Z,15.60
2023-05-24T15:45:08.762Z,15.60
2023-05-24T15:47:39.999Z,15.50
2023-05-24T15:50:08.695Z,15.60
2023-05-24T15:52:36.344Z,15.60
2023-05-24T15:55:03.869Z,15.50
2023-05-24T15:57:31.728Z,15.50
2023-05-24T15:59:58.770Z,15.60
2023-05-24T16:02:26.058Z,15.60
2023-05-24T16:04:53.287Z,15.50
2023-05-24T16:07:20.343Z,15.50
2023-05-24T16:09:47.538Z,15.60
2023-05-24T16:12:14.735Z,15.60
2023-05-24T16:14:42.250Z,15.40
2023-05-24T16:17:10.537Z,15.40
2023-05-24T16:19:37.770Z,15.60
2023-05-24T16:22:07.149Z,15.60
2023-05-24T16:24:34.179Z,15.70
2023-05-24T16:27:02.292Z,15.70
2023-05-24T16:29:29.528Z,15.70
2023-05-24T16:31:56.741Z,15.60
2023-05-24T16:34:24.639Z,15.80
2023-05-24T16:36:52.350Z,15.80
2023-05-24T16:39:19.470Z,15.80
2023-05-24T16:41:46.610Z,15.70
2023-05-24T16:44:18.120Z,15.70
2023-05-24T16:46:46.200Z,15.60
2023-05-24T16:49:13.416Z,15.60
2023-05-24T16:51:40.895Z,15.50
2023-05-24T16:54:09.341Z,15.40
2023-05-24T16:56:37.763Z,15.40
2023-05-24T16:59:05.053Z,15.30
2023-05-24T17:01:32.382Z,15.30
2023-05-24T17:03:59.714Z,15.30
2023-05-24T17:06:26.973Z,15.30
2023-05-24T17:08:54.198Z,15.20
2023-05-24T17:11:23.275Z,15.10
2023-05-24T17:13:51.677Z,15.10
2023-05-24T17:16:19.015Z,15.10
2023-05-24T17:18:46.414Z,15.10
2023-05-24T17:21:13.645Z,15.10
2023-05-24T17:23:40.980Z,15.10
2023-05-24T17:26:08.410Z,15.10
2023-05-24T17:28:36.532Z,15.10
2023-05-24T17:31:03.901Z,15.10
2023-05-24T17:33:31.975Z,15.10
2023-05-24T17:36:02.858Z,15.10
2023-05-24T17:38:33.299Z,15.10
2023-05-24T17:41:00.670Z,15.10
2023-05-24T17:43:34.408Z,15.10
2023-05-24T17:46:04.130Z,15.10
2023-05-24T17:48:32.436Z,15.10
2023-05-24T17:51:10.779Z,15.10
2023-05-24T17:53:38.970Z,15.20
2023-05-24T17:56:06.546Z,15.30
2023-05-24T17:58:36.976Z,15.30
2023-05-24T18:01:12.251Z,15.40
2023-05-24T18:03:41.144Z,15.40
2023-05-24T18:06:09.464Z,15.40
2023-05-24T18:08:38.865Z,15.40
2023-05-24T18:11:09.794Z,15.40
2023-05-24T18:13:42.246Z,15.30
2023-05-24T18:16:11.143Z,15.20
2023-05-24T18:18:38.725Z,15.20
2023-05-24T18:21:06.794Z,15.30
2023-05-24T18:23:37.757Z,15.30
2023-05-24T18:26:09.886Z,15.40
2023-05-24T18:28:38.153Z,15.30
2023-05-24T18:31:10.846Z,15.20
2023-05-24T18:33:38.493Z,15.10
2023-05-24T18:36:05.984Z,15.10
2023-05-24T18:38:37.074Z,15.10
2023-05-24T18:41:06.555Z,14.90
2023-05-24T18:43:33.868Z,14.80
2023-05-24T18:46:01.465Z,14.90
2023-05-24T18:48:28.633Z,14.90
2023-05-24T18:50:56.043Z,14.80
2023-05-24T18:53:23.221Z,14.90
2023-05-24T18:55:50.333Z,14.80
2023-05-24T18:58:17.538Z,14.80
2023-05-24T19:00:44.707Z,14.80
2023-05-24T19:03:13.440Z,14.80
2023-05-24T19:05:43.611Z,14.60
2023-05-24T19:08:11.681Z,14.60
2023-05-24T19:10:38.867Z,14.60
2023-05-24T19:13:07.170Z,14.50
2023-05-24T19:15:36.743Z,14.50
2023-05-24T19:18:04.268Z,14.50
2023-05-24T19:20:31.563Z,14.40
2023-05-24T19:22:59.421Z,14.30
2023-05-24T19:25:26.616Z,14.40
2023-05-24T19:30:23.925Z,14.30
2023-05-24T19:32:51.068Z,14.20
2023-05-24T19:35:18.147Z,14.20
2023-05-24T19:37:45.185Z,14.20
2023-05-24T19:40:12.383Z,14.10
2023-05-24T19:42:39.429Z,14.10
2023-05-24T19:45:07.335Z,14.10
2023-05-24T19:47:34.537Z,14.10
2023-05-24T19:50:01.624Z,14.00
2023-05-24T19:52:28.665Z,14.00
2023-05-24T19:54:55.852Z,14.00
2023-05-24T19:57:22.957Z,13.90
2023-05-24T19:59:50.060Z,13.90
2023-05-24T20:02:17.168Z,13.80
2023-05-24T20:04:44.213Z,13.70
2023-05-24T20:07:11.922Z,13.70
2023-05-24T20:09:39.050Z,13.70
2023-05-24T20:12:06.414Z,13.80
2023-05-24T20:14:33.465Z,13.60
2023-05-24T20:17:01.426Z,13.60
2023-05-24T20:19:28.530Z,13.50
2023-05-24T20:21:55.566Z,13.60
2023-05-24T20:24:22.678Z,13.60
2023-05-24T20:26:49.738Z,13.60
2023-05-24T20:29:16.779Z,13.60
2023-05-24T20:31:43.937Z,13.50
2023-05-24T20:34:11.092Z,13.50
2023-05-24T20:36:38.433Z,13.40
2023-05-24T20:39:05.546Z,13.50
2023-05-24T20:41:32.850Z,13.40
2023-05-24T20:43:59.883Z,13.30
2023-05-24T20:46:27.083Z,13.30
2023-05-24T20:48:54.206Z,13.30
2023-05-24T20:51:23.221Z,13.20
2023-05-24T20:53:53.187Z,13.20
2023-05-24T20:56:21.519Z,13.20
2023-05-24T20:58:52.976Z,13.20
2023-05-24T21:01:21.081Z,13.20
2023-05-24T21:03:48.340Z,13.20
2023-05-24T21:06:15.677Z,13.20
2023-05-24T21:08:43.251Z,13.20
2023-05-24T21:11:10.579Z,13.10
2023-05-24T21:13:37.729Z,13.10
2023-05-24T21:16:05.018Z,13.10
2023-05-24T21:18:33.501Z,13.00
2023-05-24T21:21:00.734Z,13.00
2023-05-24T21:23:27.851Z,13.00
2023-05-24T21:25:54.916Z,13.00
2023-05-24T21:28:21.961Z,13.10
2023-05-24T21:30:49.024Z,13.00
2023-05-24T21:33:16.619Z,13.00
2023-05-24T21:35:44.020Z,13.00
2023-05-24T21:38:13.993Z,13.00
2023-05-24T21:40:41.328Z,12.90
2023-05-24T21:43:12.445Z,13.00
2023-05-24T21:45:39.739Z,12.90
2023-05-24T21:48:07.315Z,12.90
2023-05-24T21:50:34.822Z,12.90
2023-05-24T21:53:02.207Z,12.80
2023-05-24T21:55:29.691Z,12.80
2023-05-24T21:57:56.924Z,12.70
2023-05-24T22:00:25.973Z,12.60
2023-05-24T22:02:53.191Z,12.60
2023-05-24T22:05:20.304Z,12.60
2023-05-24T22:07:48.244Z,12.60
2023-05-24T22:10:15.691Z,12.60
2023-05-24T22:12:42.986Z,12.60
2023-05-24T22:15:10.977Z,12.60
2023-05-24T22:17:41.349Z,12.60
2023-05-24T22:20:09.740Z,12.60
2023-05-24T22:22:41.265Z,12.60
2023-05-24T22:25:09.416Z,12.60
2023-05-24T22:27:36.661Z,12.50
2023-05-24T22:30:03.860Z,12.50
2023-05-24T22:32:31.078Z,12.40
2023-05-24T22:34:58.162Z,12.40
2023-05-24T22:37:25.283Z,12.40
2023-05-24T22:39:52.318Z,12.30
2023-05-24T22:42:19.437Z,12.20
2023-05-24T22:44:46.803Z,12.10
2023-05-24T22:47:14.228Z,12.10
2023-05-24T22:49:42.052Z,12.00
2023-05-24T22:52:09.277Z,12.00
2023-05-24T22:54:36.478Z,11.90
2023-05-24T22:57:03.676Z,11.90
2023-05-24T22:59:32.674Z,11.90
2023-05-24T23:01:59.865Z,11.90
2023-05-24T23:04:27.793Z,11.90
2023-05-24T23:06:55.133Z,11.90
2023-05-24T23:09:29.413Z,11.90
2023-05-24T23:11:58.759Z,11.90
2023-05-24T23:14:26.006Z,11.90
2023-05-24T23:16:53.132Z,11.90
2023-05-24T23:19:20.245Z,11.90
2023-05-24T23:21:47.590Z,11.90
2023-05-24T23:24:16.133Z,11.90
2023-05-24T23:26:43.433Z,11.90
2023-05-24T23:29:10.980Z,12.00
2023-05-24T23:31:38.291Z,11.90
2023-05-24T23:34:05.946Z,12.00
2023-05-24T23:36:33.074Z,11.90
2023-05-24T23:39:00.202Z,11.90
2023-05-24T23:41:27.440Z,11.90
2023-05-24T23:43:54.519Z,11.80
2023-05-24T23:46:21.663Z,11.90
2023-05-24T23:48:48.843Z,11.80
2023-05-24T23:51:15.983Z,11.80
2023-05-24T23:53:43.040Z,11.70
2023-05-24T23:56:10.617Z,11.60
2023-05-24T23:58:37.893Z,11.60
